createdAt,value
2018-05-29T00:02:13.699Z,14.20
2018-05-29T00:04:40.345Z,15.03
2018-05-29T00:07:07.015Z,16.17
2018-05-29T00:09:33.646Z,14.40
2018-05-29T00:12:00.500Z,15.30
2018-05-29T00:14:28.061Z,15.40
2018-05-29T00:16:55.569Z,16.97
2018-05-29T00:19:22.216Z,17.27
2018-05-29T00:21:48.819Z,16.90
2018-05-29T00:24:15.452Z,16.57
2018-05-29T00:26:42.854Z,17.40
2018-05-29T00:29:09.471Z,17.20
2018-05-29T00:31:36.244Z,17.63
2018-05-29T00:34:02.898Z,17.93
2018-05-29T00:36:29.560Z,17.90
2018-05-29T00:38:57.053Z,17.80
2018-05-29T00:41:23.675Z,18.57
2018-05-29T00:43:50.376Z,20.50
2018-05-29T00:46:17.013Z,19.23
2018-05-29T00:48:43.650Z,19.10
2018-05-29T00:51:10.347Z,19.23
2018-05-29T00:53:36.980Z,20.13
2018-05-29T00:56:03.664Z,20.40
2018-05-29T00:58:30.293Z,21.47
2018-05-29T01:00:56.948Z,21.77
2018-05-29T01:03:24.316Z,21.23
2018-05-29T01:05:51.712Z,21.40
2018-05-29T01:08:18.410Z,22.03
2018-05-29T01:10:45.754Z,21.50
2018-05-29T01:13:12.383Z,21.70
2018-05-29T01:15:39.754Z,23.10
2018-05-29T01:18:07.136Z,21.87
2018-05-29T01:20:33.815Z,22.27
2018-05-29T01:23:00.468Z,22.60
2018-05-29T01:25:27.844Z,23.00
2018-05-29T01:27:55.254Z,22.20
2018-05-29T01:30:21.884Z,21.60
2018-05-29T01:32:48.641Z,21.53
2018-05-29T01:35:15.268Z,22.57
2018-05-29T01:37:41.925Z,22.97
2018-05-29T01:40:08.609Z,23.40
2018-05-29T01:42:35.979Z,22.57
2018-05-29T01:45:02.809Z,22.77
2018-05-29T01:47:30.192Z,23.80
2018-05-29T01:49:56.833Z,23.90
2018-05-29T01:52:23.477Z,24.03
2018-05-29T01:54:50.241Z,24.00
2018-05-29T01:57:16.858Z,23.53
2018-05-29T01:59:43.765Z,23.43
2018-05-29T02:02:11.142Z,23.57
2018-05-29T02:04:37.839Z,21.10
2018-05-29T02:07:04.516Z,22.40
2018-05-29T02:09:31.309Z,24.00
2018-05-29T02:11:58.741Z,24.27
2018-05-29T02:14:25.390Z,23.17
2018-05-29T02:16:52.028Z,25.03
2018-05-29T02:19:18.665Z,22.93
2018-05-29T02:21:45.558Z,26.07
2018-05-29T02:24:12.972Z,25.00
2018-05-29T02:26:39.614Z,25.33
2018-05-29T02:29:06.394Z,25.27
2018-05-29T02:31:33.882Z,25.80
2018-05-29T02:34:00.493Z,26.60
2018-05-29T02:36:27.876Z,26.23
2018-05-29T02:38:54.509Z,25.80
2018-05-29T02:41:21.330Z,28.80
2018-05-29T02:43:48.823Z,26.10
2018-05-29T02:46:15.436Z,26.73
2018-05-29T02:48:42.157Z,28.30
2018-05-29T02:51:09.713Z,27.47
2018-05-29T02:53:37.115Z,28.40
2018-05-29T02:56:03.850Z,28.53
2018-05-29T02:58:30.493Z,28.37
2018-05-29T03:00:57.118Z,26.87
2018-05-29T03:03:24.602Z,28.43
2018-05-29T03:05:51.232Z,29.70
2018-05-29T03:08:18.032Z,27.50
2018-05-29T03:10:45.424Z,29.87
2018-05-29T03:13:12.051Z,29.63
2018-05-29T03:15:38.719Z,28.73
2018-05-29T03:18:05.417Z,30.27
2018-05-29T03:20:32.807Z,30.10
2018-05-29T03:22:59.426Z,31.50
2018-05-29T03:25:26.066Z,30.67
2018-05-29T03:27:52.919Z,30.67
2018-05-29T03:30:19.543Z,28.60
2018-05-29T03:32:47.121Z,30.30
2018-05-29T03:35:14.664Z,29.07
2018-05-29T03:37:41.317Z,28.93
2018-05-29T03:40:07.933Z,31.20
2018-05-29T03:42:35.312Z,26.63
2018-05-29T03:45:01.925Z,30.97
2018-05-29T03:47:29.318Z,29.43
2018-05-29T03:49:56.120Z,30.23
2018-05-29T03:52:23.729Z,29.37
2018-05-29T03:54:50.372Z,30.07
2018-05-29T03:57:17.034Z,29.70
2018-05-29T03:59:43.734Z,29.03
2018-05-29T04:02:10.409Z,30.80
2018-05-29T04:04:37.068Z,29.13
2018-05-29T04:07:04.551Z,30.80
2018-05-29T04:09:31.185Z,30.43
2018-05-29T04:11:57.857Z,28.10
2018-05-29T04:14:24.501Z,29.57
2018-05-29T04:16:51.139Z,28.87
2018-05-29T04:19:17.871Z,29.43
2018-05-29T04:21:44.480Z,29.07
2018-05-29T04:24:11.162Z,28.60
2018-05-29T04:26:37.788Z,30.23
2018-05-29T04:29:04.578Z,29.50
2018-05-29T04:31:32.063Z,28.93
2018-05-29T04:33:58.701Z,30.53
2018-05-29T04:36:25.317Z,28.87
2018-05-29T04:38:52.801Z,29.60
2018-05-29T04:41:19.543Z,29.60
2018-05-29T04:43:46.253Z,30.00
2018-05-29T04:46:12.841Z,27.53
2018-05-29T04:48:39.526Z,27.33
2018-05-29T04:51:07.009Z,27.60
2018-05-29T04:53:33.833Z,28.57
2018-05-29T04:56:01.191Z,27.13
2018-05-29T04:58:28.693Z,27.50
2018-05-29T05:00:55.409Z,28.60
2018-05-29T05:03:22.052Z,28.50
2018-05-29T05:05:48.789Z,27.67
2018-05-29T05:08:15.443Z,27.57
2018-05-29T05:10:42.139Z,28.37
2018-05-29T05:13:09.679Z,28.57
2018-05-29T05:15:36.357Z,29.60
2018-05-29T05:18:03.730Z,27.60
2018-05-29T05:20:30.378Z,26.30
2018-05-29T05:22:57.059Z,27.47
2018-05-29T05:25:24.490Z,25.63
2018-05-29T05:27:51.128Z,25.27
2018-05-29T05:30:18.614Z,27.17
2018-05-29T05:32:48.076Z,25.73
2018-05-29T05:35:14.696Z,26.77
2018-05-29T05:37:41.356Z,24.57
2018-05-29T05:40:08.032Z,26.83
2018-05-29T05:42:35.449Z,25.40
2018-05-29T05:45:02.074Z,25.97
2018-05-29T05:47:28.907Z,24.93
2018-05-29T05:49:55.568Z,23.97
2018-05-29T05:52:22.213Z,21.90
2018-05-29T05:54:48.862Z,20.90
2018-05-29T05:57:15.729Z,22.33
2018-05-29T05:59:42.360Z,23.60
2018-05-29T06:02:09.214Z,21.47
2018-05-29T06:04:35.834Z,20.47
2018-05-29T06:07:02.701Z,21.03
2018-05-29T06:09:29.422Z,21.17
2018-05-29T06:11:56.176Z,23.60
2018-05-29T06:14:22.834Z,21.97
2018-05-29T06:16:50.185Z,25.57
2018-05-29T06:19:17.667Z,22.00
2018-05-29T06:21:44.304Z,23.57
2018-05-29T06:24:11.002Z,21.10
2018-05-29T06:26:37.657Z,21.17
2018-05-29T06:29:05.196Z,20.57
2018-05-29T06:31:33.380Z,19.60
2018-05-29T06:34:01.000Z,19.60
2018-05-29T06:36:27.715Z,19.33
2018-05-29T06:38:57.188Z,17.77
2018-05-29T06:41:24.851Z,17.10
2018-05-29T06:43:51.561Z,16.00
2018-05-29T06:46:19.030Z,16.07
2018-05-29T06:48:45.654Z,15.83
2018-05-29T06:51:12.431Z,14.73
2018-05-29T06:53:39.697Z,15.37
2018-05-29T06:56:07.260Z,13.67
2018-05-29T06:58:34.684Z,14.20
2018-05-29T07:01:01.354Z,12.73
2018-05-29T07:03:28.773Z,12.13
2018-05-29T07:05:55.413Z,11.20
2018-05-29T07:08:22.096Z,12.00
2018-05-29T07:10:49.662Z,11.60
2018-05-29T07:13:17.068Z,11.67
2018-05-29T07:15:43.706Z,10.80
2018-05-29T07:18:10.378Z,11.20
2018-05-29T07:20:37.772Z,10.97
2018-05-29T07:23:04.579Z,10.53
2018-05-29T07:25:32.036Z,10.17
2018-05-29T07:27:59.821Z,10.40
2018-05-29T07:30:26.554Z,9.17
2018-05-29T07:32:53.361Z,9.67
2018-05-29T07:35:20.037Z,9.27
2018-05-29T07:37:46.679Z,9.10
2018-05-29T07:40:13.445Z,8.97
2018-05-29T07:42:40.080Z,9.17
2018-05-29T07:45:06.783Z,9.20
2018-05-29T07:47:33.383Z,9.43
2018-05-29T07:50:00.029Z,9.57
2018-05-29T07:52:26.709Z,8.97
2018-05-29T07:54:54.100Z,8.90
2018-05-29T07:57:20.825Z,8.67
2018-05-29T07:59:47.478Z,8.10
2018-05-29T08:02:14.341Z,8.20
2018-05-29T08:04:40.961Z,7.93
2018-05-29T08:07:07.709Z,9.00
2018-05-29T08:09:35.315Z,9.13
2018-05-29T08:12:02.698Z,10.73
2018-05-29T08:14:29.324Z,14.43
2018-05-29T08:16:56.897Z,13.27
2018-05-29T08:19:23.504Z,13.20
2018-05-29T08:21:50.166Z,13.13
2018-05-29T08:24:16.845Z,13.37
2018-05-29T08:26:43.525Z,13.43
2018-05-29T08:29:10.895Z,14.13
2018-05-29T08:31:38.332Z,13.60
2018-05-29T08:34:06.914Z,12.73
2018-05-29T08:36:33.533Z,12.43
2018-05-29T08:39:02.280Z,12.90
2018-05-29T08:41:28.957Z,11.00
2018-05-29T08:43:55.584Z,9.70
2018-05-29T08:46:22.321Z,10.23
2018-05-29T08:48:49.780Z,10.50
2018-05-29T08:51:16.371Z,9.77
2018-05-29T08:53:43.753Z,9.97
2018-05-29T08:56:10.601Z,10.13
2018-05-29T08:58:37.171Z,9.90
2018-05-29T09:01:03.854Z,11.77
2018-05-29T09:03:31.226Z,10.37
2018-05-29T09:05:57.974Z,10.50
2018-05-29T09:08:24.629Z,11.13
2018-05-29T09:10:51.462Z,9.77
2018-05-29T09:13:18.145Z,10.63
2018-05-29T09:15:44.842Z,10.80
2018-05-29T09:18:11.582Z,11.43
2018-05-29T09:20:38.232Z,11.13
2018-05-29T09:23:04.894Z,10.30
2018-05-29T09:25:32.286Z,10.90
2018-05-29T09:27:59.653Z,11.20
2018-05-29T09:30:26.333Z,12.40
2018-05-29T09:32:53.001Z,13.13
2018-05-29T09:35:19.755Z,13.60
2018-05-29T09:37:48.280Z,13.67
2018-05-29T09:40:15.017Z,12.53
2018-05-29T09:42:41.654Z,13.13
2018-05-29T09:45:09.296Z,12.00
2018-05-29T09:47:35.937Z,12.00
2018-05-29T09:50:02.504Z,11.40
2018-05-29T09:52:29.272Z,12.33
2018-05-29T09:54:55.875Z,11.77
2018-05-29T09:57:22.629Z,11.23
2018-05-29T09:59:49.286Z,11.40
2018-05-29T10:02:16.053Z,10.90
2018-05-29T10:04:43.443Z,11.20
2018-05-29T10:07:10.198Z,12.23
2018-05-29T10:09:36.807Z,12.13
2018-05-29T10:12:03.500Z,13.07
2018-05-29T10:14:30.115Z,13.33
2018-05-29T10:16:57.569Z,12.53
2018-05-29T10:19:25.317Z,12.77
2018-05-29T10:21:52.762Z,12.87
2018-05-29T10:24:19.461Z,14.03
2018-05-29T10:26:46.864Z,13.57
2018-05-29T10:29:16.653Z,13.83
2018-05-29T10:31:43.496Z,12.87
2018-05-29T10:34:11.585Z,13.43
2018-05-29T10:36:38.226Z,13.37
2018-05-29T10:39:04.904Z,13.57
2018-05-29T10:41:31.545Z,13.23
2018-05-29T10:43:58.305Z,13.07
2018-05-29T10:46:26.432Z,13.23
2018-05-29T10:48:53.207Z,13.40
2018-05-29T10:51:19.887Z,13.27
2018-05-29T10:53:47.938Z,13.87
2018-05-29T10:56:15.981Z,12.53
2018-05-29T10:58:42.812Z,13.00
2018-05-29T11:01:09.485Z,14.03
2018-05-29T11:03:36.112Z,14.30
2018-05-29T11:06:02.766Z,12.87
2018-05-29T11:08:29.401Z,13.60
2018-05-29T11:10:56.053Z,13.03
2018-05-29T11:13:23.469Z,13.77
2018-05-29T11:15:50.143Z,13.77
2018-05-29T11:18:17.536Z,13.80
2018-05-29T11:20:44.204Z,14.00
2018-05-29T11:23:10.941Z,12.90
2018-05-29T11:25:37.824Z,14.57
2018-05-29T11:28:04.531Z,14.70
2018-05-29T11:30:31.204Z,13.80
2018-05-29T11:32:58.648Z,13.63
2018-05-29T11:35:25.266Z,13.70
2018-05-29T11:37:51.916Z,13.70
2018-05-29T11:40:18.538Z,13.03
2018-05-29T11:42:45.195Z,14.17
2018-05-29T11:45:12.567Z,15.33
2018-05-29T11:47:39.932Z,14.47
2018-05-29T11:50:07.331Z,15.13
2018-05-29T11:52:34.004Z,14.43
2018-05-29T11:55:00.769Z,14.83
2018-05-29T11:57:28.264Z,14.37
2018-05-29T11:59:54.886Z,14.97
2018-05-29T12:02:21.557Z,15.27
2018-05-29T12:04:48.257Z,14.27
2018-05-29T12:07:15.638Z,14.20
2018-05-29T12:09:42.300Z,14.47
2018-05-29T12:12:24.357Z,15.17
2018-05-29T12:14:51.763Z,14.23
2018-05-29T12:17:18.430Z,13.53
2018-05-29T12:19:45.070Z,14.27
2018-05-29T12:22:12.581Z,14.20
2018-05-29T12:24:39.281Z,14.00
2018-05-29T12:27:06.391Z,14.43
2018-05-29T12:29:33.119Z,14.33
2018-05-29T12:31:59.801Z,14.70
2018-05-29T12:34:26.473Z,14.70
2018-05-29T12:36:53.136Z,15.03
2018-05-29T12:39:19.806Z,14.33
2018-05-29T12:41:46.437Z,14.43
2018-05-29T12:44:15.108Z,14.57
2018-05-29T12:46:42.956Z,14.43
2018-05-29T12:49:09.653Z,13.93
2018-05-29T12:51:37.457Z,14.57
2018-05-29T12:54:04.105Z,17.40
2018-05-29T12:56:32.835Z,14.50
2018-05-29T12:58:59.524Z,15.23
2018-05-29T13:01:26.224Z,14.10
2018-05-29T13:03:53.687Z,14.33
2018-05-29T13:06:21.124Z,14.57
2018-05-29T13:08:47.827Z,14.23
2018-05-29T13:11:14.478Z,14.67
2018-05-29T13:13:41.403Z,13.30
2018-05-29T13:16:08.256Z,13.20
2018-05-29T13:18:34.913Z,12.60
2018-05-29T13:21:01.570Z,12.67
2018-05-29T13:23:28.221Z,13.37
2018-05-29T13:25:55.635Z,13.27
2018-05-29T13:28:22.323Z,14.70
2018-05-29T13:30:49.724Z,14.27
2018-05-29T13:33:16.381Z,14.83
2018-05-29T13:35:43.136Z,15.23
2018-05-29T13:38:09.980Z,13.90
2018-05-29T13:40:36.649Z,14.37
2018-05-29T13:43:04.232Z,16.27
2018-05-29T13:45:30.889Z,20.27
2018-05-29T13:47:57.629Z,21.87
2018-05-29T13:50:24.286Z,20.43
2018-05-29T13:52:51.092Z,23.67
2018-05-29T13:55:17.755Z,24.77
2018-05-29T13:57:45.992Z,12.67
2018-05-29T14:00:12.692Z,17.53
2018-05-29T14:02:39.522Z,20.37
2018-05-29T14:05:06.373Z,20.90
2018-05-29T14:07:33.098Z,18.47
2018-05-29T14:09:59.757Z,13.70
2018-05-29T14:12:26.595Z,12.03
2018-05-29T14:14:53.424Z,14.90
2018-05-29T14:17:20.087Z,17.17
2018-05-29T14:19:46.770Z,17.03
2018-05-29T14:22:13.448Z,30.67
2018-05-29T14:24:40.179Z,34.63
2018-05-29T14:27:07.008Z,35.50
2018-05-29T14:29:33.703Z,35.77
2018-05-29T14:32:00.394Z,21.60
2018-05-29T14:34:27.036Z,18.97
2018-05-29T14:36:53.730Z,15.77
2018-05-29T14:39:21.115Z,14.93
2018-05-29T14:41:47.859Z,17.53
2018-05-29T14:44:14.565Z,21.37
2018-05-29T14:46:41.216Z,23.33
2018-05-29T14:49:08.636Z,21.80
2018-05-29T14:51:35.364Z,18.03
2018-05-29T14:54:02.005Z,21.00
2018-05-29T14:56:29.128Z,23.27
2018-05-29T14:58:55.900Z,22.93
2018-05-29T15:01:22.569Z,24.17
2018-05-29T15:03:49.362Z,24.37
2018-05-29T15:06:16.139Z,25.27
2018-05-29T15:08:42.860Z,26.73
2018-05-29T15:11:09.561Z,21.60
2018-05-29T15:13:36.234Z,20.83
2018-05-29T15:16:03.064Z,20.83
2018-05-29T15:18:29.767Z,20.53
2018-05-29T15:20:56.393Z,21.23
2018-05-29T15:23:23.109Z,20.17
2018-05-29T15:25:49.804Z,17.30
2018-05-29T15:28:16.464Z,14.00
2018-05-29T15:30:43.188Z,12.33
2018-05-29T15:33:10.141Z,11.13
2018-05-29T15:35:36.720Z,11.00
2018-05-29T15:38:03.486Z,11.80
2018-05-29T15:40:31.081Z,11.87
2018-05-29T15:42:57.825Z,11.80
2018-05-29T15:45:24.480Z,12.33
2018-05-29T15:47:51.140Z,11.83
2018-05-29T15:50:17.830Z,11.87
2018-05-29T15:52:44.495Z,12.80
2018-05-29T15:55:11.246Z,14.57
2018-05-29T15:57:38.131Z,15.20
2018-05-29T16:00:05.643Z,14.77
2018-05-29T16:02:32.626Z,16.33
2018-05-29T16:05:00.898Z,17.53
2018-05-29T16:07:27.567Z,18.47
2018-05-29T16:09:54.385Z,19.53
2018-05-29T16:12:22.122Z,19.93
2018-05-29T16:14:49.403Z,21.10
2018-05-29T16:17:16.818Z,18.30
2018-05-29T16:19:43.926Z,20.30
2018-05-29T16:22:11.044Z,18.93
2018-05-29T16:24:37.733Z,18.03
2018-05-29T16:27:04.617Z,18.10
2018-05-29T16:29:31.851Z,19.40
2018-05-29T16:31:58.671Z,18.87
2018-05-29T16:34:25.532Z,18.63
2018-05-29T16:36:52.815Z,17.77
2018-05-29T16:39:21.034Z,17.23
2018-05-29T16:41:47.710Z,19.27
2018-05-29T16:44:14.857Z,17.80
2018-05-29T16:46:41.834Z,16.80
2018-05-29T16:49:09.316Z,19.23
2018-05-29T16:51:36.202Z,18.43
2018-05-29T16:54:03.285Z,18.80
2018-05-29T16:56:32.469Z,18.10
2018-05-29T16:58:59.121Z,18.27
2018-05-29T17:01:26.021Z,19.63
2018-05-29T17:03:52.755Z,19.03
2018-05-29T17:06:19.520Z,19.77
2018-05-29T17:08:46.372Z,18.67
2018-05-29T17:11:13.160Z,19.07
2018-05-29T17:13:40.661Z,19.93
2018-05-29T17:16:07.381Z,20.97
2018-05-29T17:18:34.880Z,19.73
2018-05-29T17:21:01.661Z,22.00
2018-05-29T17:23:29.083Z,24.23
2018-05-29T17:25:56.011Z,23.40
2018-05-29T17:28:22.918Z,23.30
2018-05-29T17:30:49.584Z,27.43
2018-05-29T17:33:16.420Z,24.73
2018-05-29T17:35:43.112Z,24.20
2018-05-29T17:38:10.617Z,22.43
2018-05-29T17:40:37.360Z,21.83
2018-05-29T17:43:04.914Z,21.27
2018-05-29T17:45:31.624Z,18.73
2018-05-29T17:47:59.322Z,19.03
2018-05-29T17:50:26.461Z,18.47
2018-05-29T17:52:53.256Z,16.87
2018-05-29T17:55:19.889Z,17.03
2018-05-29T17:57:46.900Z,16.30
2018-05-29T18:00:13.849Z,16.10
2018-05-29T18:02:40.610Z,16.57
2018-05-29T18:05:07.668Z,16.40
2018-05-29T18:07:34.686Z,17.33
2018-05-29T18:10:01.421Z,18.00
2018-05-29T18:12:28.669Z,18.87
2018-05-29T18:14:55.775Z,20.20
2018-05-29T18:17:23.499Z,19.87
2018-05-29T18:19:50.541Z,19.40
2018-05-29T18:22:18.441Z,20.20
2018-05-29T18:24:46.296Z,21.77
2018-05-29T18:27:13.438Z,19.50
2018-05-29T18:29:40.790Z,22.10
2018-05-29T18:32:07.463Z,22.33
2018-05-29T18:34:34.252Z,20.23
2018-05-29T18:37:01.009Z,21.93
2018-05-29T18:39:27.879Z,21.90
2018-05-29T18:41:54.615Z,20.40
2018-05-29T18:44:21.331Z,20.80
2018-05-29T18:46:48.432Z,18.50
2018-05-29T18:49:17.759Z,19.20
2018-05-29T18:51:44.456Z,18.37
2018-05-29T18:54:11.239Z,18.70
2018-05-29T18:56:38.697Z,19.13
2018-05-29T18:59:05.372Z,19.53
2018-05-29T19:01:32.205Z,17.07
2018-05-29T19:03:58.967Z,16.33
2018-05-29T19:06:25.664Z,16.50
2018-05-29T19:08:52.393Z,14.33
2018-05-29T19:11:20.579Z,13.70
2018-05-29T19:13:48.208Z,12.83
2018-05-29T19:16:14.903Z,15.03
2018-05-29T19:18:41.985Z,16.40
2018-05-29T19:21:09.348Z,17.27
2018-05-29T19:23:36.049Z,17.97
2018-05-29T19:26:03.125Z,17.57
2018-05-29T19:28:30.505Z,17.60
2018-05-29T19:30:57.211Z,17.77
2018-05-29T19:33:23.938Z,17.07
2018-05-29T19:35:50.738Z,18.00
2018-05-29T19:38:18.440Z,17.90
2018-05-29T19:40:45.155Z,17.40
2018-05-29T19:43:12.713Z,16.40
2018-05-29T19:45:40.137Z,15.90
2018-05-29T19:48:06.934Z,17.37
2018-05-29T19:50:33.658Z,17.73
2018-05-29T19:53:01.116Z,15.60
2018-05-29T19:55:27.895Z,16.80
2018-05-29T19:57:55.353Z,15.77
2018-05-29T20:00:22.027Z,15.90
2018-05-29T20:02:49.485Z,16.63
2018-05-29T20:05:17.018Z,16.33
2018-05-29T20:07:43.825Z,15.47
2018-05-29T20:10:10.878Z,16.27
2018-05-29T20:12:37.624Z,15.03
2018-05-29T20:15:04.284Z,15.77
2018-05-29T20:17:31.059Z,14.80
2018-05-29T20:19:58.528Z,14.57
2018-05-29T20:22:25.176Z,14.57
2018-05-29T20:24:51.844Z,13.17
2018-05-29T20:27:18.521Z,13.43
2018-05-29T20:29:45.240Z,12.67
2018-05-29T20:32:12.186Z,12.00
2018-05-29T20:34:38.921Z,11.63
2018-05-29T20:37:05.625Z,11.77
2018-05-29T20:39:32.995Z,10.60
2018-05-29T20:41:59.827Z,10.53
2018-05-29T20:44:26.487Z,10.50
2018-05-29T20:46:53.173Z,10.37
2018-05-29T20:49:21.333Z,8.67
2018-05-29T20:51:48.072Z,8.67
2018-05-29T20:54:14.727Z,8.50
2018-05-29T20:56:42.269Z,8.57
2018-05-29T20:59:08.978Z,7.33
2018-05-29T21:01:35.709Z,7.57
2018-05-29T21:04:02.350Z,7.30
2018-05-29T21:06:28.994Z,7.33
2018-05-29T21:08:55.752Z,7.10
2018-05-29T21:11:22.421Z,7.17
2018-05-29T21:13:49.125Z,6.50
2018-05-29T21:16:15.774Z,7.50
2018-05-29T21:18:42.425Z,7.57
2018-05-29T21:21:09.313Z,7.03
2018-05-29T21:23:36.825Z,7.50
2018-05-29T21:26:03.503Z,7.57
2018-05-29T21:28:31.091Z,7.50
2018-05-29T21:30:57.753Z,6.53
2018-05-29T21:33:24.448Z,7.33
2018-05-29T21:35:51.896Z,7.00
2018-05-29T21:38:19.422Z,6.77
2018-05-29T21:40:46.160Z,7.20
2018-05-29T21:43:12.905Z,6.80
2018-05-29T21:45:39.565Z,6.63
2018-05-29T21:48:06.269Z,6.60
2018-05-29T21:50:32.909Z,6.97
2018-05-29T21:52:59.610Z,7.03
2018-05-29T21:55:26.261Z,6.87
2018-05-29T21:57:52.950Z,7.03
2018-05-29T22:00:19.630Z,6.97
2018-05-29T22:02:46.257Z,7.47
2018-05-29T22:05:13.640Z,7.00
2018-05-29T22:07:40.317Z,7.10
2018-05-29T22:10:07.011Z,7.07
2018-05-29T22:12:33.834Z,6.33
2018-05-29T22:15:01.309Z,6.67
2018-05-29T22:17:27.971Z,5.77
2018-05-29T22:19:54.657Z,5.73
2018-05-29T22:22:22.058Z,6.27
2018-05-29T22:24:48.777Z,5.80
2018-05-29T22:27:15.468Z,6.20
2018-05-29T22:29:42.242Z,5.90
2018-05-29T22:32:09.690Z,5.90
2018-05-29T22:34:37.079Z,5.23
2018-05-29T22:37:03.904Z,5.17
2018-05-29T22:39:31.282Z,5.73
2018-05-29T22:41:57.954Z,5.00
2018-05-29T22:44:24.611Z,4.90
2018-05-29T22:46:51.233Z,5.60
2018-05-29T22:49:18.053Z,5.90
2018-05-29T22:51:44.734Z,5.47
2018-05-29T22:54:11.351Z,5.90
2018-05-29T22:56:38.051Z,5.80
2018-05-29T22:59:04.771Z,5.43
2018-05-29T23:01:32.117Z,5.97
2018-05-29T23:03:59.284Z,6.43
2018-05-29T23:06:26.653Z,6.73
2018-05-29T23:08:53.250Z,6.00
2018-05-29T23:11:20.007Z,6.57
2018-05-29T23:13:47.571Z,6.33
2018-05-29T23:16:14.979Z,5.87
2018-05-29T23:18:41.579Z,6.50
2018-05-29T23:21:08.272Z,5.77
2018-05-29T23:23:34.908Z,6.93
2018-05-29T23:26:01.532Z,6.50
2018-05-29T23:28:28.141Z,6.60
2018-05-29T23:30:54.812Z,6.33
2018-05-29T23:33:22.507Z,7.00
2018-05-29T23:35:49.165Z,7.07
2018-05-29T23:38:16.614Z,6.80
2018-05-29T23:40:43.283Z,6.90
2018-05-29T23:43:09.945Z,7.03
2018-05-29T23:45:36.707Z,7.00
2018-05-29T23:48:03.380Z,6.70
2018-05-29T23:50:30.753Z,7.33
2018-05-29T23:52:57.509Z,7.63
2018-05-29T23:55:24.143Z,6.33
2018-05-29T23:57:50.898Z,7.67
